Terminal Aerodrome Forecast
Issued by NWS

Home | Current Version | Previous Version | Text Only | Print | Product List | Glossary On
Versions: 1 2 3 4 5 6 7 8 9 10 11 12 13 14 15 16 17 18 19 20 21 22 23 24 25 26
000
FTUS46 KLOX 182300 RRA
TAFLAX
TAF
KLAX 182340Z 1900/2006 26012KT P6SM SCT040 BKN120 BKN200
     FM190300 26008KT P6SM BKN030
     FM190700 28006KT P6SM OVC018
     FM191000 28005KT P6SM OVC015
     FM191400 VRB03KT P6SM OVC020
     FM191800 25007KT P6SM OVC025
     FM192000 25011KT P6SM SCT030 SCT250
     FM200300 25008KT P6SM SCT250=

USA.gov is the U.S. government's official web portal to all federal, state and local government web resources and services.